sensor_id;sensor_type;location;lat;lon;timestamp;pressure;altitude;pressure_sealevel;temperature;humidity
13734;BME280;43298;52.560;13.508;2022-08-27T00:02:17;99841.25;;;19.31;100.00
13734;BME280;43298;52.560;13.508;2022-08-27T00:04:44;99843.72;;;19.33;100.00
13734;BME280;43298;52.560;13.508;2022-08-27T00:07:12;99837.94;;;19.29;100.00
13734;BME280;43298;52.560;13.508;2022-08-27T00:09:38;99834.63;;;19.27;100.00
13734;BME280;43298;52.560;13.508;2022-08-27T00:12:05;99829.91;;;19.31;100.00
13734;BME280;43298;52.560;13.508;2022-08-27T00:14:31;99818.59;;;19.30;100.00
13734;BME280;43298;52.560;13.508;2022-08-27T00:16:57;99827.56;;;19.28;100.00
13734;BME280;43298;52.560;13.508;2022-08-27T00:19:23;99827.72;;;19.26;100.00
13734;BME280;43298;52.560;13.508;2022-08-27T00:21:49;99825.50;;;19.22;100.00
13734;BME280;43298;52.560;13.508;2022-08-27T00:24:15;99822.59;;;19.25;100.00
13734;BME280;43298;52.560;13.508;2022-08-27T00:26:41;99821.38;;;19.29;100.00
13734;BME280;43298;52.560;13.508;2022-08-27T00:29:07;99811.97;;;19.26;100.00
13734;BME280;43298;52.560;13.508;2022-08-27T00:31:34;99800.25;;;19.30;100.00
13734;BME280;43298;52.560;13.508;2022-08-27T00:34:00;99793.34;;;19.29;100.00
13734;BME280;43298;52.560;13.508;2022-08-27T00:36:26;99784.22;;;19.33;100.00
13734;BME280;43298;52.560;13.508;2022-08-27T00:38:52;99771.69;;;19.37;100.00
13734;BME280;43298;52.560;13.508;2022-08-27T00:41:19;99767.09;;;19.39;100.00
13734;BME280;43298;52.560;13.508;2022-08-27T00:44:05;99772.19;;;19.40;100.00
13734;BME280;43298;52.560;13.508;2022-08-27T00:46:45;99769.88;;;19.37;100.00
13734;BME280;43298;52.560;13.508;2022-08-27T00:49:25;99767.94;;;19.39;100.00
13734;BME280;43298;52.560;13.508;2022-08-27T00:55:21;99767.78;;;19.41;100.00
13734;BME280;43298;52.560;13.508;2022-08-27T00:58:17;99770.00;;;19.45;100.00
13734;BME280;43298;52.560;13.508;2022-08-27T01:00:45;99765.41;;;19.47;100.00
13734;BME280;43298;52.560;13.508;2022-08-27T01:03:12;99759.50;;;19.45;100.00
13734;BME280;43298;52.560;13.508;2022-08-27T01:05:38;99763.50;;;19.49;100.00
13734;BME280;43298;52.560;13.508;2022-08-27T01:08:16;99767.09;;;19.48;100.00
13734;BME280;43298;52.560;13.508;2022-08-27T01:10:43;99777.28;;;19.51;100.00
13734;BME280;43298;52.560;13.508;2022-08-27T01:13:12;99779.75;;;19.53;100.00
13734;BME280;43298;52.560;13.508;2022-08-27T01:15:40;99783.34;;;19.52;100.00
13734;BME280;43298;52.560;13.508;2022-08-27T01:18:07;99777.69;;;19.56;100.00
13734;BME280;43298;52.560;13.508;2022-08-27T01:21:00;99781.66;;;19.60;100.00
13734;BME280;43298;52.560;13.508;2022-08-27T01:24:17;99782.50;;;19.61;100.00
13734;BME280;43298;52.560;13.508;2022-08-27T01:26:43;99775.16;;;19.64;100.00
13734;BME280;43298;52.560;13.508;2022-08-27T01:29:09;99776.00;;;19.65;100.00
13734;BME280;43298;52.560;13.508;2022-08-27T01:31:35;99779.16;;;19.68;100.00
13734;BME280;43298;52.560;13.508;2022-08-27T01:34:04;99770.28;;;19.69;100.00
13734;BME280;43298;52.560;13.508;2022-08-27T01:36:31;99769.06;;;19.73;100.00
13734;BME280;43298;52.560;13.508;2022-08-27T01:38:57;99770.00;;;19.72;100.00
13734;BME280;43298;52.560;13.508;2022-08-27T01:41:24;99767.25;;;19.74;100.00
13734;BME280;43298;52.560;13.508;2022-08-27T01:43:50;99779.28;;;19.67;100.00
13734;BME280;43298;52.560;13.508;2022-08-27T01:46:25;99774.97;;;19.75;100.00
13734;BME280;43298;52.560;13.508;2022-08-27T01:48:51;99767.25;;;19.74;100.00
13734;BME280;43298;52.560;13.508;2022-08-27T01:51:17;99774.59;;;19.70;100.00
13734;BME280;43298;52.560;13.508;2022-08-27T01:53:44;99772.91;;;19.69;100.00
13734;BME280;43298;52.560;13.508;2022-08-27T01:56:10;99778.47;;;19.66;100.00
13734;BME280;43298;52.560;13.508;2022-08-27T01:58:37;99778.06;;;19.61;100.00
13734;BME280;43298;52.560;13.508;2022-08-27T02:01:08;99771.19;;;19.60;100.00
13734;BME280;43298;52.560;13.508;2022-08-27T02:03:36;99778.91;;;19.62;100.00
13734;BME280;43298;52.560;13.508;2022-08-27T02:06:08;99774.47;;;19.62;100.00
13734;BME280;43298;52.560;13.508;2022-08-27T02:08:34;99779.47;;;19.56;100.00
13734;BME280;43298;52.560;13.508;2022-08-27T02:11:00;99785.00;;;19.53;100.00
13734;BME280;43298;52.560;13.508;2022-08-27T02:13:27;99777.28;;;19.51;100.00
13734;BME280;43298;52.560;13.508;2022-08-27T02:15:53;99784.19;;;19.52;100.00
13734;BME280;43298;52.560;13.508;2022-08-27T02:18:19;99786.69;;;19.44;100.00
13734;BME280;43298;52.560;13.508;2022-08-27T02:20:47;99791.38;;;19.50;100.00
13734;BME280;43298;52.560;13.508;2022-08-27T02:23:13;99785.28;;;19.50;100.00
13734;BME280;43298;52.560;13.508;2022-08-27T02:25:40;99789.16;;;19.55;100.00
13734;BME280;43298;52.560;13.508;2022-08-27T02:28:06;99786.53;;;19.55;100.00
13734;BME280;43298;52.560;13.508;2022-08-27T02:30:33;99794.69;;;19.52;100.00
13734;BME280;43298;52.560;13.508;2022-08-27T02:33:03;99795.06;;;19.57;100.00
13734;BME280;43298;52.560;13.508;2022-08-27T02:35:34;99801.28;;;19.56;100.00
13734;BME280;43298;52.560;13.508;2022-08-27T02:38:03;99794.66;;;19.62;100.00
13734;BME280;43298;52.560;13.508;2022-08-27T02:40:29;99788.56;;;19.61;100.00
13734;BME280;43298;52.560;13.508;2022-08-27T02:42:54;99792.16;;;19.60;100.00
13734;BME280;43298;52.560;13.508;2022-08-27T02:45:20;99792.81;;;19.62;100.00
13734;BME280;43298;52.560;13.508;2022-08-27T02:47:47;99796.16;;;19.64;100.00
13734;BME280;43298;52.560;13.508;2022-08-27T02:50:14;99794.22;;;19.66;100.00
13734;BME280;43298;52.560;13.508;2022-08-27T02:52:40;99790.06;;;19.64;100.00
13734;BME280;43298;52.560;13.508;2022-08-27T02:55:07;99785.50;;;19.66;100.00
13734;BME280;43298;52.560;13.508;2022-08-27T02:57:33;99779.69;;;19.72;100.00
13734;BME280;43298;52.560;13.508;2022-08-27T02:59:59;99783.00;;;19.74;100.00
13734;BME280;43298;52.560;13.508;2022-08-27T03:02:25;99792.06;;;19.79;100.00
13734;BME280;43298;52.560;13.508;2022-08-27T03:04:51;99782.41;;;19.80;100.00
13734;BME280;43298;52.560;13.508;2022-08-27T03:07:17;99788.31;;;19.82;100.00
13734;BME280;43298;52.560;13.508;2022-08-27T03:09:43;99787.38;;;19.83;100.00
13734;BME280;43298;52.560;13.508;2022-08-27T03:12:09;99786.03;;;19.79;100.00
13734;BME280;43298;52.560;13.508;2022-08-27T03:14:34;99799.00;;;19.80;100.00
13734;BME280;43298;52.560;13.508;2022-08-27T03:17:00;99801.06;;;19.77;100.00
13734;BME280;43298;52.560;13.508;2022-08-27T03:19:46;99799.28;;;19.77;100.00
13734;BME280;43298;52.560;13.508;2022-08-27T03:22:13;99804.25;;;19.80;100.00
13734;BME280;43298;52.560;13.508;2022-08-27T03:24:39;99803.41;;;19.80;100.00
13734;BME280;43298;52.560;13.508;2022-08-27T03:27:07;99802.44;;;19.81;100.00
13734;BME280;43298;52.560;13.508;2022-08-27T03:29:34;99788.03;;;19.85;100.00
13734;BME280;43298;52.560;13.508;2022-08-27T03:32:00;99796.91;;;19.84;100.00
13734;BME280;43298;52.560;13.508;2022-08-27T03:34:26;99791.38;;;19.87;100.00
13734;BME280;43298;52.560;13.508;2022-08-27T03:36:52;99787.09;;;19.86;100.00
13734;BME280;43298;52.560;13.508;2022-08-27T03:39:18;99783.63;;;19.85;100.00
13734;BME280;43298;52.560;13.508;2022-08-27T03:41:44;99791.22;;;19.88;100.00
13734;BME280;43298;52.560;13.508;2022-08-27T03:44:10;99783.50;;;19.87;100.00
13734;BME280;43298;52.560;13.508;2022-08-27T03:46:36;99785.28;;;19.86;100.00
13734;BME280;43298;52.560;13.508;2022-08-27T03:49:03;99781.38;;;19.90;100.00
13734;BME280;43298;52.560;13.508;2022-08-27T03:51:29;99776.28;;;19.89;100.00
13734;BME280;43298;52.560;13.508;2022-08-27T03:53:54;99776.28;;;19.89;100.00
13734;BME280;43298;52.560;13.508;2022-08-27T03:56:20;99770.22;;;19.88;100.00
13734;BME280;43298;52.560;13.508;2022-08-27T03:58:46;99769.25;;;19.89;100.00
13734;BME280;43298;52.560;13.508;2022-08-27T04:01:12;99768.88;;;19.84;100.00
13734;BME280;43298;52.560;13.508;2022-08-27T04:03:38;99768.88;;;19.84;100.00
13734;BME280;43298;52.560;13.508;2022-08-27T04:06:04;99771.50;;;19.84;100.00
13734;BME280;43298;52.560;13.508;2022-08-27T04:08:30;99770.50;;;19.85;100.00
13734;BME280;43298;52.560;13.508;2022-08-27T04:10:56;99772.16;;;19.86;100.00
13734;BME280;43298;52.560;13.508;2022-08-27T04:13:23;99779.66;;;19.81;100.00
13734;BME280;43298;52.560;13.508;2022-08-27T04:15:51;99785.19;;;19.78;100.00
13734;BME280;43298;52.560;13.508;2022-08-27T04:18:18;99790.28;;;19.80;100.00
13734;BME280;43298;52.560;13.508;2022-08-27T04:20:46;99790.44;;;19.78;100.00
13734;BME280;43298;52.560;13.508;2022-08-27T04:23:12;99792.06;;;19.79;100.00
13734;BME280;43298;52.560;13.508;2022-08-27T04:25:39;99790.06;;;19.73;100.00
13734;BME280;43298;52.560;13.508;2022-08-27T04:28:06;99792.69;;;19.73;100.00
13734;BME280;43298;52.560;13.508;2022-08-27T04:30:32;99800.13;;;19.68;100.00
13734;BME280;43298;52.560;13.508;2022-08-27T04:32:58;99804.56;;;19.68;100.00
13734;BME280;43298;52.560;13.508;2022-08-27T04:35:24;99802.91;;;19.67;100.00
13734;BME280;43298;52.560;13.508;2022-08-27T04:37:50;99807.03;;;19.69;100.00
13734;BME280;43298;52.560;13.508;2022-08-27T04:40:16;99800.41;;;19.65;100.00
13734;BME280;43298;52.560;13.508;2022-08-27T04:42:42;99802.91;;;19.67;100.00
13734;BME280;43298;52.560;13.508;2022-08-27T04:45:09;99801.13;;;19.67;100.00
13734;BME280;43298;52.560;13.508;2022-08-27T04:47:35;99802.91;;;19.67;100.00
13734;BME280;43298;52.560;13.508;2022-08-27T04:50:01;99801.25;;;19.66;100.00
13734;BME280;43298;52.560;13.508;2022-08-27T04:52:27;99805.53;;;19.67;100.00
13734;BME280;43298;52.560;13.508;2022-08-27T04:54:53;99807.34;;;19.66;100.00
13734;BME280;43298;52.560;13.508;2022-08-27T04:57:20;99805.38;;;19.68;100.00
13734;BME280;43298;52.560;13.508;2022-08-27T04:59:46;99811.31;;;19.70;100.00
13734;BME280;43298;52.560;13.508;2022-08-27T05:02:12;99815.88;;;19.68;100.00
13734;BME280;43298;52.560;13.508;2022-08-27T05:04:39;99821.13;;;19.68;100.00
13734;BME280;43298;52.560;13.508;2022-08-27T05:07:07;99814.75;;;19.71;100.00
13734;BME280;43298;52.560;13.508;2022-08-27T05:09:34;99814.63;;;19.72;100.00
13734;BME280;43298;52.560;13.508;2022-08-27T05:12:00;99820.16;;;19.69;100.00
13734;BME280;43298;52.560;13.508;2022-08-27T05:14:26;99820.84;;;19.71;100.00
13734;BME280;43298;52.560;13.508;2022-08-27T05:16:56;99817.69;;;19.68;100.00
13734;BME280;43298;52.560;13.508;2022-08-27T05:19:22;99818.06;;;19.73;100.00
13734;BME280;43298;52.560;13.508;2022-08-27T05:21:50;99815.53;;;19.81;100.00
13734;BME280;43298;52.560;13.508;2022-08-27T05:24:18;99811.41;;;19.78;100.00
13734;BME280;43298;52.560;13.508;2022-08-27T05:26:45;99814.88;;;19.79;100.00
13734;BME280;43298;52.560;13.508;2022-08-27T05:29:11;99815.31;;;19.74;100.00
13734;BME280;43298;52.560;13.508;2022-08-27T05:31:39;99815.53;;;19.81;100.00
13734;BME280;43298;52.560;13.508;2022-08-27T05:34:05;99826.31;;;19.87;100.00
13734;BME280;43298;52.560;13.508;2022-08-27T05:36:34;99834.19;;;19.87;100.00
13734;BME280;43298;52.560;13.508;2022-08-27T05:39:03;99843.75;;;19.79;100.00
13734;BME280;43298;52.560;13.508;2022-08-27T05:41:31;99852.72;;;19.76;100.00
13734;BME280;43298;52.560;13.508;2022-08-27T05:44:02;99862.41;;;19.76;100.00
13734;BME280;43298;52.560;13.508;2022-08-27T05:46:28;99869.69;;;19.82;100.00
13734;BME280;43298;52.560;13.508;2022-08-27T05:48:57;99871.22;;;19.84;100.00
13734;BME280;43298;52.560;13.508;2022-08-27T05:51:33;99933.22;;;19.85;100.00
13734;BME280;43298;52.560;13.508;2022-08-27T05:54:09;99934.72;;;19.88;100.00
13734;BME280;43298;52.560;13.508;2022-08-27T05:56:41;99944.69;;;19.84;100.00
13734;BME280;43298;52.560;13.508;2022-08-27T05:59:07;99938.22;;;19.79;100.00
13734;BME280;43298;52.560;13.508;2022-08-27T06:01:53;99953.22;;;19.86;100.00
13734;BME280;43298;52.560;13.508;2022-08-27T06:04:22;99951.84;;;19.92;100.00
13734;BME280;43298;52.560;13.508;2022-08-27T06:06:50;99952.56;;;19.84;100.00
13734;BME280;43298;52.560;13.508;2022-08-27T06:09:23;99945.63;;;19.93;100.00
13734;BME280;43298;52.560;13.508;2022-08-27T06:11:49;99945.47;;;19.94;100.00
13734;BME280;43298;52.560;13.508;2022-08-27T06:14:17;99950.31;;;19.89;100.00
13734;BME280;43298;52.560;13.508;2022-08-27T06:16:43;99959.44;;;19.95;100.00
13734;BME280;43298;52.560;13.508;2022-08-27T06:19:10;99953.75;;;19.99;100.00
13734;BME280;43298;52.560;13.508;2022-08-27T06:21:40;99963.28;;;20.00;100.00
13734;BME280;43298;52.560;13.508;2022-08-27T06:24:07;99959.28;;;19.96;100.00
13734;BME280;43298;52.560;13.508;2022-08-27T06:26:34;99962.06;;;19.95;100.00
13734;BME280;43298;52.560;13.508;2022-08-27T06:29:03;99966.19;;;19.97;100.00
13734;BME280;43298;52.560;13.508;2022-08-27T06:31:29;99963.31;;;19.91;100.00
13734;BME280;43298;52.560;13.508;2022-08-27T06:34:00;99968.03;;;19.87;100.00
13734;BME280;43298;52.560;13.508;2022-08-27T06:36:27;99968.44;;;19.83;100.00
13734;BME280;43298;52.560;13.508;2022-08-27T06:38:54;99970.34;;;19.90;100.00
13734;BME280;43298;52.560;13.508;2022-08-27T06:41:23;99964.94;;;20.01;100.00
13734;BME280;43298;52.560;13.508;2022-08-27T06:43:52;99966.00;;;20.08;100.00
13734;BME280;43298;52.560;13.508;2022-08-27T06:46:21;99972.00;;;20.10;100.00
13734;BME280;43298;52.560;13.508;2022-08-27T06:48:51;99973.50;;;20.03;100.00
13734;BME280;43298;52.560;13.508;2022-08-27T06:51:24;99970.59;;;20.16;100.00
13734;BME280;43298;52.560;13.508;2022-08-27T06:53:56;99972.84;;;20.11;100.00
13734;BME280;43298;52.560;13.508;2022-08-27T06:56:23;99976.50;;;20.27;100.00
13734;BME280;43298;52.560;13.508;2022-08-27T06:58:54;99973.88;;;20.27;100.00
13734;BME280;43298;52.560;13.508;2022-08-27T07:01:25;99977.78;;;20.23;100.00
13734;BME280;43298;52.560;13.508;2022-08-27T07:03:58;99983.31;;;20.20;100.00
13734;BME280;43298;52.560;13.508;2022-08-27T07:06:26;99979.66;;;20.31;100.00
13734;BME280;43298;52.560;13.508;2022-08-27T07:08:52;99985.63;;;20.33;100.00
13734;BME280;43298;52.560;13.508;2022-08-27T07:11:18;99978.44;;;20.25;100.00
13734;BME280;43298;52.560;13.508;2022-08-27T07:13:48;99992.28;;;20.27;100.00
13734;BME280;43298;52.560;13.508;2022-08-27T07:16:18;99994.47;;;20.22;100.00
13734;BME280;43298;52.560;13.508;2022-08-27T07:18:45;99997.97;;;20.04;100.00
13734;BME280;43298;52.560;13.508;2022-08-27T07:21:12;99996.47;;;20.11;100.00
13734;BME280;43298;52.560;13.508;2022-08-27T07:23:38;99996.72;;;20.17;100.00
13734;BME280;43298;52.560;13.508;2022-08-27T07:26:11;99990.06;;;20.23;100.00
13734;BME280;43298;52.560;13.508;2022-08-27T07:28:39;99993.63;;;20.31;100.00
13734;BME280;43298;52.560;13.508;2022-08-27T07:31:08;99992.38;;;20.35;100.00
13734;BME280;43298;52.560;13.508;2022-08-27T07:33:36;99988.47;;;20.39;100.00
13734;BME280;43298;52.560;13.508;2022-08-27T07:36:03;99977.00;;;20.40;100.00
13734;BME280;43298;52.560;13.508;2022-08-27T07:38:31;99981.63;;;20.29;100.00
13734;BME280;43298;52.560;13.508;2022-08-27T07:40:57;99986.75;;;20.21;100.00
13734;BME280;43298;52.560;13.508;2022-08-27T07:43:23;99980.25;;;20.25;100.00
13734;BME280;43298;52.560;13.508;2022-08-27T07:46:07;99987.69;;;20.29;100.00
13734;BME280;43298;52.560;13.508;2022-08-27T07:48:33;99980.88;;;20.36;100.00
13734;BME280;43298;52.560;13.508;2022-08-27T07:51:02;99980.66;;;20.30;100.00
13734;BME280;43298;52.560;13.508;2022-08-27T07:53:31;99969.13;;;20.40;100.00
13734;BME280;43298;52.560;13.508;2022-08-27T07:56:15;99974.78;;;20.45;100.00
13734;BME280;43298;52.560;13.508;2022-08-27T07:58:42;99966.19;;;20.43;100.00
13734;BME280;43298;52.560;13.508;2022-08-27T08:01:09;99981.59;;;20.38;100.00
13734;BME280;43298;52.560;13.508;2022-08-27T08:03:35;99974.13;;;20.34;100.00
13734;BME280;43298;52.560;13.508;2022-08-27T08:06:08;99986.41;;;20.33;100.00
13734;BME280;43298;52.560;13.508;2022-08-27T08:08:35;99986.41;;;20.33;100.00
13734;BME280;43298;52.560;13.508;2022-08-27T08:11:02;99991.56;;;20.25;100.00
13734;BME280;43298;52.560;13.508;2022-08-27T08:13:29;99996.38;;;20.39;100.00
13734;BME280;43298;52.560;13.508;2022-08-27T08:15:56;99994.56;;;20.40;100.00
13734;BME280;43298;52.560;13.508;2022-08-27T08:18:23;99992.47;;;20.43;100.00
13734;BME280;43298;52.560;13.508;2022-08-27T08:20:50;99996.09;;;20.42;100.00
13734;BME280;43298;52.560;13.508;2022-08-27T08:23:16;99995.00;;;20.35;100.00
13734;BME280;43298;52.560;13.508;2022-08-27T08:25:42;99993.88;;;20.38;100.00
13734;BME280;43298;52.560;13.508;2022-08-27T08:28:08;100004.66;;;20.44;100.00
13734;BME280;43298;52.560;13.508;2022-08-27T08:30:36;100003.81;;;20.44;100.00
13734;BME280;43298;52.560;13.508;2022-08-27T08:33:02;99998.47;;;20.36;100.00
13734;BME280;43298;52.560;13.508;2022-08-27T08:35:28;99993.38;;;20.25;100.00
13734;BME280;43298;52.560;13.508;2022-08-27T08:37:54;99991.44;;;20.27;100.00
13734;BME280;43298;52.560;13.508;2022-08-27T08:40:31;99985.19;;;20.28;100.00
13734;BME280;43298;52.560;13.508;2022-08-27T08:42:58;99982.56;;;20.37;100.00
13734;BME280;43298;52.560;13.508;2022-08-27T08:45:30;99968.50;;;20.29;100.00
13734;BME280;43298;52.560;13.508;2022-08-27T08:48:09;99960.44;;;20.40;100.00
13734;BME280;43298;52.560;13.508;2022-08-27T08:50:58;99953.81;;;20.36;100.00
13734;BME280;43298;52.560;13.508;2022-08-27T08:53:54;99949.38;;;20.36;100.00
13734;BME280;43298;52.560;13.508;2022-08-27T08:56:54;99955.03;;;20.41;100.00
13734;BME280;43298;52.560;13.508;2022-08-27T09:01:50;99960.91;;;20.53;100.00
13734;BME280;43298;52.560;13.508;2022-08-27T09:04:16;99961.31;;;20.58;100.00
13734;BME280;43298;52.560;13.508;2022-08-27T09:09:47;99952.50;;;20.49;100.00
13734;BME280;43298;52.560;13.508;2022-08-27T09:12:28;99943.94;;;20.47;100.00
13734;BME280;43298;52.560;13.508;2022-08-27T09:15:21;99937.38;;;20.61;100.00
13734;BME280;43298;52.560;13.508;2022-08-27T09:17:49;99932.25;;;20.59;100.00
13734;BME280;43298;52.560;13.508;2022-08-27T09:20:19;99933.06;;;20.60;100.00
13734;BME280;43298;52.560;13.508;2022-08-27T09:23:25;99928.44;;;20.54;100.00
13734;BME280;43298;52.560;13.508;2022-08-27T09:25:55;99924.88;;;20.45;100.00
13734;BME280;43298;52.560;13.508;2022-08-27T09:28:27;99931.72;;;20.56;100.00
13734;BME280;43298;52.560;13.508;2022-08-27T09:31:19;99942.00;;;20.49;100.00
13734;BME280;43298;52.560;13.508;2022-08-27T09:33:45;99946.75;;;20.63;100.00
13734;BME280;43298;52.560;13.508;2022-08-27T09:36:15;99949.25;;;20.83;100.00
13734;BME280;43298;52.560;13.508;2022-08-27T09:38:56;99953.56;;;20.84;100.00
13734;BME280;43298;52.560;13.508;2022-08-27T09:41:26;99947.44;;;20.93;100.00
13734;BME280;43298;52.560;13.508;2022-08-27T09:44:06;99957.91;;;20.75;100.00
13734;BME280;43298;52.560;13.508;2022-08-27T09:46:32;99958.19;;;20.99;100.00
13734;BME280;43298;52.560;13.508;2022-08-27T09:49:13;99962.19;;;21.38;100.00
13734;BME280;43298;52.560;13.508;2022-08-27T09:51:43;99966.41;;;21.49;100.00
13734;BME280;43298;52.560;13.508;2022-08-27T09:54:10;99961.56;;;21.62;100.00
13734;BME280;43298;52.560;13.508;2022-08-27T09:56:45;99972.97;;;21.70;100.00
13734;BME280;43298;52.560;13.508;2022-08-27T09:59:28;99975.69;;;21.61;100.00
13734;BME280;43298;52.560;13.508;2022-08-27T10:02:25;99988.09;;;21.51;100.00
13734;BME280;43298;52.560;13.508;2022-08-27T10:04:55;99993.31;;;21.43;100.00
13734;BME280;43298;52.560;13.508;2022-08-27T10:07:58;99989.03;;;21.42;100.00
13734;BME280;43298;52.560;13.508;2022-08-27T10:22:27;99979.81;;;21.63;100.00
13734;BME280;43298;52.560;13.508;2022-08-27T10:31:36;99981.03;;;21.69;100.00
13734;BME280;43298;52.560;13.508;2022-08-27T10:50:47;99981.13;;;21.59;100.00
13734;BME280;43298;52.560;13.508;2022-08-27T10:54:02;99969.03;;;21.84;100.00
13734;BME280;43298;52.560;13.508;2022-08-27T11:02:31;99957.03;;;22.15;100.00
13734;BME280;43298;52.560;13.508;2022-08-27T11:05:16;99963.59;;;22.11;100.00
13734;BME280;43298;52.560;13.508;2022-08-27T11:10:50;99969.81;;;22.02;100.00
13734;BME280;43298;52.560;13.508;2022-08-27T11:13:36;99966.53;;;22.08;100.00
13734;BME280;43298;52.560;13.508;2022-08-27T11:16:32;99975.63;;;21.88;100.00
13734;BME280;43298;52.560;13.508;2022-08-27T11:22:30;99984.13;;;21.82;100.00
13734;BME280;43298;52.560;13.508;2022-08-27T11:25:18;99984.44;;;21.79;100.00
13734;BME280;43298;52.560;13.508;2022-08-27T11:27:52;99982.75;;;21.95;100.00
13734;BME280;43298;52.560;13.508;2022-08-27T11:42:49;99970.25;;;22.98;100.00
13734;BME280;43298;52.560;13.508;2022-08-27T11:45:06;99972.59;;;23.17;100.00
13734;BME280;43298;52.560;13.508;2022-08-27T11:47:33;99976.47;;;23.47;100.00
13734;BME280;43298;52.560;13.508;2022-08-27T11:50:03;99981.59;;;23.80;100.00
13734;BME280;43298;52.560;13.508;2022-08-27T11:53:02;99905.59;;;24.14;100.00
13734;BME280;43298;52.560;13.508;2022-08-27T11:55:35;99919.69;;;24.45;100.00
13734;BME280;43298;52.560;13.508;2022-08-27T11:58:27;99925.47;;;24.41;100.00
13734;BME280;43298;52.560;13.508;2022-08-27T12:00:54;99944.25;;;24.07;100.00
13734;BME280;43298;52.560;13.508;2022-08-27T12:03:33;99948.56;;;24.08;100.00
13734;BME280;43298;52.560;13.508;2022-08-27T12:06:21;99964.09;;;23.71;100.00
13734;BME280;43298;52.560;13.508;2022-08-27T12:08:50;99974.16;;;23.68;100.00
13734;BME280;43298;52.560;13.508;2022-08-27T12:11:47;99964.44;;;23.52;100.00
13734;BME280;43298;52.560;13.508;2022-08-27T12:14:48;99954.88;;;23.51;100.00
13734;BME280;43298;52.560;13.508;2022-08-27T12:18:02;99954.19;;;23.49;100.00
13734;BME280;43298;52.560;13.508;2022-08-27T12:21:02;99949.34;;;24.25;100.00
13734;BME280;43298;52.560;13.508;2022-08-27T12:26:39;99955.16;;;24.97;100.00
13734;BME280;43298;52.560;13.508;2022-08-27T12:35:22;99989.34;;;24.76;100.00
13734;BME280;43298;52.560;13.508;2022-08-27T12:38:05;99992.03;;;24.68;100.00
13734;BME280;43298;52.560;13.508;2022-08-27T12:43:22;99992.03;;;24.68;100.00
13734;BME280;43298;52.560;13.508;2022-08-27T12:45:56;99991.56;;;24.49;100.00
13734;BME280;43298;52.560;13.508;2022-08-27T12:48:29;100010.97;;;23.77;100.00
13734;BME280;43298;52.560;13.508;2022-08-27T12:51:23;99999.22;;;23.48;100.00
13734;BME280;43298;52.560;13.508;2022-08-27T12:54:00;99984.25;;;23.72;100.00
13734;BME280;43298;52.560;13.508;2022-08-27T13:05:42;99997.38;;;24.28;100.00
13734;BME280;43298;52.560;13.508;2022-08-27T13:08:33;100011.63;;;24.11;100.00
13734;BME280;43298;52.560;13.508;2022-08-27T13:11:25;100004.50;;;24.28;100.00
13734;BME280;43298;52.560;13.508;2022-08-27T13:14:02;100002.41;;;25.08;100.00
13734;BME280;43298;52.560;13.508;2022-08-27T13:16:28;100013.50;;;24.65;100.00
13734;BME280;43298;52.560;13.508;2022-08-27T13:18:55;100019.38;;;24.21;100.00
13734;BME280;43298;52.560;13.508;2022-08-27T13:21:29;100009.00;;;24.03;100.00
13734;BME280;43298;52.560;13.508;2022-08-27T13:24:00;100011.63;;;23.71;100.00
13734;BME280;43298;52.560;13.508;2022-08-27T13:26:30;100010.16;;;23.53;100.00
13734;BME280;43298;52.560;13.508;2022-08-27T13:29:00;100004.94;;;23.19;100.00
13734;BME280;43298;52.560;13.508;2022-08-27T13:31:26;99999.38;;;23.30;100.00
13734;BME280;43298;52.560;13.508;2022-08-27T13:33:54;99990.66;;;23.46;100.00
13734;BME280;43298;52.560;13.508;2022-08-27T13:36:34;99988.50;;;23.57;100.00
13734;BME280;43298;52.560;13.508;2022-08-27T13:39:03;99988.50;;;23.41;100.00
13734;BME280;43298;52.560;13.508;2022-08-27T13:41:37;99986.03;;;23.72;100.00
13734;BME280;43298;52.560;13.508;2022-08-27T13:44:20;99989.84;;;23.93;100.00
13734;BME280;43298;52.560;13.508;2022-08-27T13:46:59;100000.75;;;23.90;100.00
13734;BME280;43298;52.560;13.508;2022-08-27T13:49:28;99998.69;;;24.40;100.00
13734;BME280;43298;52.560;13.508;2022-08-27T13:54:33;100007.06;;;24.68;100.00
13734;BME280;43298;52.560;13.508;2022-08-27T13:57:09;100030.03;;;24.59;100.00
13734;BME280;43298;52.560;13.508;2022-08-27T13:59:39;100038.53;;;25.32;100.00
13734;BME280;43298;52.560;13.508;2022-08-27T14:05:07;100070.25;;;25.62;100.00
13734;BME280;43298;52.560;13.508;2022-08-27T14:07:46;100066.81;;;25.31;100.00
13734;BME280;43298;52.560;13.508;2022-08-27T14:10:37;100072.44;;;24.90;100.00
13734;BME280;43298;52.560;13.508;2022-08-27T14:18:06;100060.50;;;24.94;100.00
13734;BME280;43298;52.560;13.508;2022-08-27T14:20:33;100059.88;;;25.22;100.00
13734;BME280;43298;52.560;13.508;2022-08-27T14:22:59;100067.91;;;25.45;100.00
13734;BME280;43298;52.560;13.508;2022-08-27T14:25:25;100066.22;;;25.13;100.00
13734;BME280;43298;52.560;13.508;2022-08-27T14:27:53;100065.06;;;25.46;100.00
13734;BME280;43298;52.560;13.508;2022-08-27T14:30:23;100082.19;;;24.89;100.00
13734;BME280;43298;52.560;13.508;2022-08-27T14:32:49;100087.72;;;24.48;100.00
13734;BME280;43298;52.560;13.508;2022-08-27T14:35:16;100089.22;;;24.58;100.00
13734;BME280;43298;52.560;13.508;2022-08-27T14:37:43;100084.38;;;24.70;100.00
13734;BME280;43298;52.560;13.508;2022-08-27T14:40:12;100092.47;;;25.23;100.00